Time;durP1;ratioP1;P1;durP2;ratioP2;P2;SDS_P1;SDS_P2;PMS_P1;PMS_P2;Temp;Humidity;BMP_temperature;BMP_pressure;BME280_temperature;BME280_humidity;BME280_pressure;Samples;Min_cycle;Max_cycle;Signal;HPM_P1;HPM_P2
2022/10/09 00:01:30;;;;;;;;;30.00;30.00;;;;;;;;116424;1208;25400;-62
2022/10/09 00:03:59;;;;;;;;;22.00;22.00;;;;;;;;116503;1206;25615;-61
2022/10/09 00:06:33;;;;;;;;;31.00;26.00;;;;;;;;116442;1200;25447;-62
2022/10/09 00:09:02;;;;;;;;;26.00;23.50;;;;;;;;116428;1202;25333;-62
2022/10/09 00:11:32;;;;;;;;;28.00;25.00;;;;;;;;116425;1200;28655;-62
2022/10/09 00:14:01;;;;;;;;;28.00;28.00;;;;;;;;116430;1200;25529;-62
2022/10/09 00:16:29;;;;;;;;;29.50;26.50;;;;;;;;116470;1193;25578;-62
2022/10/09 00:18:57;;;;;;;;;31.00;25.00;;;;;;;;116387;1204;25235;-62
2022/10/09 00:21:33;;;;;;;;;31.00;29.00;;;;;;;;116407;1196;24792;-62
2022/10/09 00:24:03;;;;;;;;;26.00;23.00;;;;;;;;116458;1200;25446;-61
2022/10/09 00:26:31;;;;;;;;;29.00;26.00;;;;;;;;116455;1196;25015;-62
2022/10/09 00:29:00;;;;;;;;;33.00;30.00;;;;;;;;116430;1200;24768;-61
2022/10/09 00:31:28;;;;;;;;;26.67;26.67;;;;;;;;116427;1196;24839;-62
2022/10/09 00:33:56;;;;;;;;;35.00;30.50;;;;;;;;116435;1203;25272;-62
2022/10/09 00:36:25;;;;;;;;;27.50;27.50;;;;;;;;116499;1200;25630;-61
2022/10/09 00:38:54;;;;;;;;;34.00;33.00;;;;;;;;116399;1201;25338;-62
2022/10/09 00:41:28;;;;;;;;;26.00;26.00;;;;;;;;116444;1200;25241;-62
2022/10/09 00:44:38;;;;;;;;;22.00;22.00;;;;;;;;116413;1209;24687;-62
2022/10/09 00:47:12;;;;;;;;;23.50;23.00;;;;;;;;116519;1203;25280;-61
2022/10/09 00:49:40;;;;;;;;;26.00;24.00;;;;;;;;116521;1202;24872;-61
2022/10/09 00:52:08;;;;;;;;;31.00;28.00;;;;;;;;116401;1203;24984;-64
2022/10/09 00:54:38;;;;;;;;;25.50;24.50;;;;;;;;116394;1206;25141;-62
2022/10/09 00:57:07;;;;;;;;;25.00;24.00;;;;;;;;116555;1202;24704;-61
2022/10/09 00:59:36;;;;;;;;;30.00;27.50;;;;;;;;116599;1200;25366;-62
2022/10/09 01:02:04;;;;;;;;;30.50;27.00;;;;;;;;116579;1202;25598;-62
2022/10/09 01:04:32;;;;;;;;;29.50;27.00;;;;;;;;116550;1202;25476;-61
2022/10/09 01:07:20;;;;;;;;;23.00;21.00;;;;;;;;116612;1211;25474;-62
2022/10/09 01:09:52;;;;;;;;;28.50;25.50;;;;;;;;116578;1210;25499;-61
2022/10/09 01:12:55;;;;;;;;;28.00;25.00;;;;;;;;116500;1203;25589;-62
2022/10/09 01:15:36;;;;;;;;;25.00;23.00;;;;;;;;116132;1209;25024;-61
2022/10/09 01:18:15;;;;;;;;;26.00;23.00;;;;;;;;116477;1211;25470;-61
2022/10/09 01:20:46;;;;;;;;;21.00;21.00;;;;;;;;116429;1203;25153;-62
2022/10/09 01:23:48;;;;;;;;;33.00;27.00;;;;;;;;116840;1200;25328;-62
2022/10/09 01:26:36;;;;;;;;;29.00;21.00;;;;;;;;116601;1211;25145;-62
2022/10/09 01:29:06;;;;;;;;;22.50;22.50;;;;;;;;116514;1199;24731;-62
2022/10/09 01:31:40;;;;;;;;;23.00;23.00;;;;;;;;116404;1200;25687;-62
2022/10/09 01:34:11;;;;;;;;;27.50;26.00;;;;;;;;116584;1209;25151;-62
2022/10/09 01:36:39;;;;;;;;;25.00;25.00;;;;;;;;116369;1203;25067;-62
2022/10/09 01:39:10;;;;;;;;;21.00;20.00;;;;;;;;116566;1206;25343;-62
2022/10/09 01:41:38;;;;;;;;;22.00;21.00;;;;;;;;116436;1209;24745;-62
2022/10/09 01:44:22;;;;;;;;;26.00;24.00;;;;;;;;116444;1202;25187;-62
2022/10/09 01:46:50;;;;;;;;;20.00;20.00;;;;;;;;116442;1209;25643;-62
2022/10/09 01:49:19;;;;;;;;;21.33;19.33;;;;;;;;116473;1200;24878;-62
2022/10/09 01:51:58;;;;;;;;;23.50;23.50;;;;;;;;116544;1200;25558;-62
2022/10/09 01:54:41;;;;;;;;;23.00;22.00;;;;;;;;116605;1196;25630;-62
2022/10/09 01:57:13;;;;;;;;;24.00;21.00;;;;;;;;116561;1200;25608;-62
2022/10/09 01:59:43;;;;;;;;;21.50;20.50;;;;;;;;116442;1207;25502;-62
2022/10/09 02:02:12;;;;;;;;;21.50;20.50;;;;;;;;116427;1203;25261;-62
2022/10/09 02:04:42;;;;;;;;;22.00;21.00;;;;;;;;116435;1198;24814;-62
2022/10/09 02:07:10;;;;;;;;;22.00;19.33;;;;;;;;116379;1208;24872;-62
2022/10/09 02:09:39;;;;;;;;;24.00;22.33;;;;;;;;116598;1203;25662;-62
2022/10/09 02:12:08;;;;;;;;;25.00;25.00;;;;;;;;116463;1206;25485;-62
2022/10/09 02:14:38;;;;;;;;;29.00;24.00;;;;;;;;116410;1205;25991;-62
2022/10/09 02:17:17;;;;;;;;;21.00;21.00;;;;;;;;116442;1200;25349;-62
2022/10/09 02:19:51;;;;;;;;;23.50;21.00;;;;;;;;116415;1200;24890;-62
2022/10/09 02:22:25;;;;;;;;;19.00;19.00;;;;;;;;116381;1204;24801;-62
2022/10/09 02:24:54;;;;;;;;;27.33;24.67;;;;;;;;116443;1196;25620;-61
2022/10/09 02:27:22;;;;;;;;;28.00;28.00;;;;;;;;116415;1210;25558;-61
2022/10/09 02:29:52;;;;;;;;;22.00;21.00;;;;;;;;116400;1202;24755;-61
2022/10/09 02:32:20;;;;;;;;;22.00;22.00;;;;;;;;116375;1201;25379;-62
2022/10/09 02:34:48;;;;;;;;;21.00;21.00;;;;;;;;116422;1200;24898;-62
2022/10/09 02:37:17;;;;;;;;;21.50;21.50;;;;;;;;116457;1203;24992;-59
2022/10/09 02:39:45;;;;;;;;;25.00;24.00;;;;;;;;116429;1203;25509;-59
2022/10/09 02:42:13;;;;;;;;;22.00;21.00;;;;;;;;116446;1200;25069;-59
2022/10/09 02:44:41;;;;;;;;;28.00;23.00;;;;;;;;116521;1200;25152;-59
2022/10/09 02:47:10;;;;;;;;;21.50;19.50;;;;;;;;116551;1205;25544;-59
2022/10/09 02:49:38;;;;;;;;;23.00;22.00;;;;;;;;116424;1200;24698;-59
2022/10/09 02:52:06;;;;;;;;;22.50;22.00;;;;;;;;116496;1203;24875;-59
2022/10/09 02:54:34;;;;;;;;;26.00;21.00;;;;;;;;116439;1198;24822;-59
2022/10/09 02:57:03;;;;;;;;;21.00;17.50;;;;;;;;116556;1203;25647;-59
2022/10/09 02:59:31;;;;;;;;;25.00;20.50;;;;;;;;116430;1200;25308;-59
2022/10/09 03:01:59;;;;;;;;;25.00;23.00;;;;;;;;116443;1207;25018;-59
2022/10/09 03:04:28;;;;;;;;;23.00;19.00;;;;;;;;116477;1203;25035;-59
2022/10/09 03:06:56;;;;;;;;;20.50;19.50;;;;;;;;116418;1206;25559;-59
2022/10/09 03:09:24;;;;;;;;;20.00;18.00;;;;;;;;116383;1204;25364;-59
2022/10/09 03:11:58;;;;;;;;;24.00;21.00;;;;;;;;116445;1196;25583;-59
2022/10/09 03:14:26;;;;;;;;;21.00;18.00;;;;;;;;116455;1200;24985;-59
2022/10/09 03:16:54;;;;;;;;;21.00;19.50;;;;;;;;116405;1206;25066;-60
2022/10/09 03:19:23;;;;;;;;;21.00;18.50;;;;;;;;116467;1200;25581;-60
2022/10/09 03:21:51;;;;;;;;;22.00;19.00;;;;;;;;116426;1206;25158;-59
2022/10/09 03:24:19;;;;;;;;;21.00;18.50;;;;;;;;116419;1199;25641;-59
2022/10/09 03:26:47;;;;;;;;;20.50;20.00;;;;;;;;116408;1201;25019;-59
2022/10/09 03:29:15;;;;;;;;;22.50;22.50;;;;;;;;116550;1211;24954;-59
2022/10/09 03:31:43;;;;;;;;;23.00;19.00;;;;;;;;116425;1201;25072;-59
2022/10/09 03:34:20;;;;;;;;;13.00;10.00;;;;;;;;116449;1206;24938;-59
2022/10/09 03:36:49;;;;;;;;;15.00;14.00;;;;;;;;116441;1203;24878;-62
2022/10/09 03:39:17;;;;;;;;;18.00;17.00;;;;;;;;116405;1196;25076;-62
2022/10/09 03:41:45;;;;;;;;;19.00;19.00;;;;;;;;116410;1200;25395;-62
2022/10/09 03:44:13;;;;;;;;;18.00;18.00;;;;;;;;116453;1196;24854;-62
2022/10/09 03:46:41;;;;;;;;;17.50;16.00;;;;;;;;116385;1204;25160;-62
2022/10/09 03:49:10;;;;;;;;;15.00;15.00;;;;;;;;116429;1209;25459;-62
2022/10/09 03:51:38;;;;;;;;;17.50;17.50;;;;;;;;116468;1204;25531;-59
2022/10/09 03:54:06;;;;;;;;;19.00;16.00;;;;;;;;116501;1203;24858;-59
2022/10/09 03:56:34;;;;;;;;;20.00;16.00;;;;;;;;116443;1209;24850;-59
2022/10/09 03:59:04;;;;;;;;;19.00;18.00;;;;;;;;116497;1203;25205;-62
2022/10/09 04:01:32;;;;;;;;;20.00;18.00;;;;;;;;116426;1209;24857;-62
2022/10/09 04:04:01;;;;;;;;;19.50;18.50;;;;;;;;116499;1202;24907;-62
2022/10/09 04:06:29;;;;;;;;;20.00;19.50;;;;;;;;116389;1202;25139;-62
2022/10/09 04:08:57;;;;;;;;;18.00;16.00;;;;;;;;116527;1203;25592;-62
2022/10/09 04:11:26;;;;;;;;;23.50;19.00;;;;;;;;116435;1207;25225;-62
2022/10/09 04:13:54;;;;;;;;;11.00;11.00;;;;;;;;116556;1209;25357;-62
2022/10/09 04:16:22;;;;;;;;;21.00;18.00;;;;;;;;116426;1210;25467;-61
2022/10/09 04:18:51;;;;;;;;;18.67;17.67;;;;;;;;116423;1199;25164;-61
2022/10/09 04:21:19;;;;;;;;;19.00;19.00;;;;;;;;116424;1200;24919;-62
2022/10/09 04:23:47;;;;;;;;;22.00;18.50;;;;;;;;116387;1206;25378;-61
2022/10/09 04:26:15;;;;;;;;;19.00;18.00;;;;;;;;116520;1209;25262;-61
2022/10/09 04:28:43;;;;;;;;;17.00;16.50;;;;;;;;116426;1206;24815;-61
2022/10/09 04:31:12;;;;;;;;;21.00;20.00;;;;;;;;116517;1201;24859;-61
2022/10/09 04:33:40;;;;;;;;;19.00;14.00;;;;;;;;116413;1202;25339;-61
2022/10/09 04:36:08;;;;;;;;;23.50;21.50;;;;;;;;116416;1203;25368;-62
2022/10/09 04:38:37;;;;;;;;;19.00;18.00;;;;;;;;116437;1198;25414;-61
2022/10/09 04:41:06;;;;;;;;;17.00;15.00;;;;;;;;116441;1209;25463;-61
2022/10/09 04:43:34;;;;;;;;;19.50;16.50;;;;;;;;116384;1196;25003;-62
2022/10/09 04:46:07;;;;;;;;;21.00;17.00;;;;;;;;116514;1211;24818;-62
2022/10/09 04:48:40;;;;;;;;;18.33;17.67;;;;;;;;116472;1202;25737;-61
2022/10/09 04:51:08;;;;;;;;;16.00;14.00;;;;;;;;116571;1196;24819;-61
2022/10/09 04:53:38;;;;;;;;;17.67;16.33;;;;;;;;116547;1205;24967;-61
2022/10/09 04:56:14;;;;;;;;;17.25;15.75;;;;;;;;116471;1195;25238;-61
2022/10/09 04:58:43;;;;;;;;;17.67;16.00;;;;;;;;116469;1197;25397;-61
2022/10/09 05:01:17;;;;;;;;;19.33;16.00;;;;;;;;116454;1210;24936;-61
2022/10/09 05:03:46;;;;;;;;;22.00;18.00;;;;;;;;116451;1203;25427;-62
2022/10/09 05:06:16;;;;;;;;;18.00;16.00;;;;;;;;116441;1198;25046;-62
2022/10/09 05:08:44;;;;;;;;;16.00;14.00;;;;;;;;116499;1206;25643;-61
2022/10/09 05:11:15;;;;;;;;;17.00;17.00;;;;;;;;116452;1205;25542;-61
2022/10/09 05:13:45;;;;;;;;;16.00;15.00;;;;;;;;116449;1195;24972;-61
2022/10/09 05:16:16;;;;;;;;;16.00;15.50;;;;;;;;116477;1200;25402;-61
2022/10/09 05:18:48;;;;;;;;;18.00;17.00;;;;;;;;116448;1199;24887;-62
2022/10/09 05:21:16;;;;;;;;;14.00;12.00;;;;;;;;116428;1196;24869;-62
2022/10/09 05:23:45;;;;;;;;;16.00;14.00;;;;;;;;116506;1209;25320;-62
2022/10/09 05:26:18;;;;;;;;;20.00;16.00;;;;;;;;116488;1203;25473;-62
2022/10/09 05:28:47;;;;;;;;;14.50;14.50;;;;;;;;116406;1211;25236;-62
2022/10/09 05:31:23;;;;;;;;;17.00;14.00;;;;;;;;116550;1207;25354;-61
2022/10/09 05:33:52;;;;;;;;;15.00;14.50;;;;;;;;116455;1200;24841;-62
2022/10/09 05:36:21;;;;;;;;;15.50;13.00;;;;;;;;116554;1203;25766;-61
2022/10/09 05:38:49;;;;;;;;;15.00;12.50;;;;;;;;116427;1203;25003;-61
2022/10/09 05:41:18;;;;;;;;;20.00;16.00;;;;;;;;116408;1211;25483;-62
2022/10/09 05:43:48;;;;;;;;;17.00;17.00;;;;;;;;116439;1203;25312;-62
2022/10/09 05:46:22;;;;;;;;;17.67;17.00;;;;;;;;116395;1196;25259;-64
2022/10/09 05:48:57;;;;;;;;;17.00;17.00;;;;;;;;116477;1206;25643;-61
2022/10/09 05:51:28;;;;;;;;;14.00;14.00;;;;;;;;116448;1199;24852;-61
2022/10/09 05:53:57;;;;;;;;;14.00;13.00;;;;;;;;116404;1207;25066;-61
2022/10/09 05:56:34;;;;;;;;;16.50;14.50;;;;;;;;116450;1199;25408;-61
2022/10/09 05:59:07;;;;;;;;;16.33;15.00;;;;;;;;116467;1200;26078;-61
2022/10/09 06:01:38;;;;;;;;;17.00;13.00;;;;;;;;116428;1199;25218;-62
2022/10/09 06:04:14;;;;;;;;;15.00;13.00;;;;;;;;116430;1210;25122;-61
2022/10/09 06:06:43;;;;;;;;;16.00;15.00;;;;;;;;116515;1207;24956;-61
2022/10/09 06:09:12;;;;;;;;;19.00;18.00;;;;;;;;116563;1210;25435;-61
2022/10/09 06:11:41;;;;;;;;;16.00;16.00;;;;;;;;116501;1206;24935;-61
2022/10/09 06:14:11;;;;;;;;;18.50;17.00;;;;;;;;116517;1206;25214;-61
2022/10/09 06:16:42;;;;;;;;;9.67;9.67;;;;;;;;116502;1202;25182;-61
2022/10/09 06:19:12;;;;;;;;;15.00;14.00;;;;;;;;116442;1203;25117;-61
2022/10/09 06:21:41;;;;;;;;;14.00;14.00;;;;;;;;116537;1200;25208;-61
2022/10/09 06:24:20;;;;;;;;;12.00;12.00;;;;;;;;116516;1201;25529;-61
2022/10/09 06:26:55;;;;;;;;;17.50;16.50;;;;;;;;116487;1202;25292;-62
2022/10/09 06:29:24;;;;;;;;;14.00;13.00;;;;;;;;116512;1199;25637;-62
2022/10/09 06:31:52;;;;;;;;;12.00;10.00;;;;;;;;116407;1203;25092;-62
2022/10/09 06:34:22;;;;;;;;;13.25;13.25;;;;;;;;116424;1198;25132;-63
2022/10/09 06:36:50;;;;;;;;;17.00;12.33;;;;;;;;116440;1196;24968;-62
2022/10/09 06:39:18;;;;;;;;;18.50;14.50;;;;;;;;116459;1210;25654;-62
2022/10/09 06:41:47;;;;;;;;;13.00;13.00;;;;;;;;116459;1203;24889;-61
2022/10/09 06:44:15;;;;;;;;;15.00;15.00;;;;;;;;116418;1201;25287;-61
2022/10/09 06:46:47;;;;;;;;;16.00;14.00;;;;;;;;116527;1198;24657;-61
2022/10/09 06:49:15;;;;;;;;;14.50;14.50;;;;;;;;116430;1205;25078;-61
2022/10/09 06:51:43;;;;;;;;;12.50;12.50;;;;;;;;116452;1199;24910;-61
2022/10/09 06:54:15;;;;;;;;;12.50;11.50;;;;;;;;116421;1203;25432;-62
2022/10/09 06:56:43;;;;;;;;;11.00;11.00;;;;;;;;116449;1202;25194;-61
2022/10/09 06:59:12;;;;;;;;;17.00;15.00;;;;;;;;116428;1205;25526;-61
2022/10/09 07:01:40;;;;;;;;;18.00;14.00;;;;;;;;116476;1207;24905;-61
2022/10/09 07:04:11;;;;;;;;;15.00;13.00;;;;;;;;116401;1202;24798;-60
2022/10/09 07:06:42;;;;;;;;;16.00;16.00;;;;;;;;116429;1209;25539;-61
2022/10/09 07:09:13;;;;;;;;;15.00;13.00;;;;;;;;116409;1204;24846;-61
2022/10/09 07:11:44;;;;;;;;;10.50;10.50;;;;;;;;116390;1205;25355;-61
2022/10/09 07:14:14;;;;;;;;;14.00;12.00;;;;;;;;116470;1209;25052;-61
2022/10/09 07:16:45;;;;;;;;;16.50;14.00;;;;;;;;116430;1203;25808;-61
2022/10/09 07:19:14;;;;;;;;;13.67;13.00;;;;;;;;116537;1202;25557;-62
2022/10/09 07:21:44;;;;;;;;;13.00;11.00;;;;;;;;116575;1206;25747;-61
2022/10/09 07:24:12;;;;;;;;;14.67;14.00;;;;;;;;116424;1211;25647;-60
2022/10/09 07:26:43;;;;;;;;;17.00;14.00;;;;;;;;116438;1202;24836;-60
2022/10/09 07:29:13;;;;;;;;;11.50;11.50;;;;;;;;116430;1203;24697;-61
2022/10/09 07:31:42;;;;;;;;;13.00;10.50;;;;;;;;116490;1196;25239;-61
2022/10/09 07:34:11;;;;;;;;;;;;;;;;;;116412;1204;25592;-60
2022/10/09 07:36:39;;;;;;;;;15.50;12.50;;;;;;;;116509;1210;25734;-64
2022/10/09 07:39:07;;;;;;;;;11.67;11.67;;;;;;;;116431;1210;25427;-62
2022/10/09 07:41:36;;;;;;;;;13.00;13.00;;;;;;;;116379;1198;25172;-62
2022/10/09 07:44:04;;;;;;;;;13.00;13.00;;;;;;;;116408;1203;24902;-63
2022/10/09 07:46:32;;;;;;;;;13.00;13.00;;;;;;;;116406;1207;25385;-64
2022/10/09 07:49:01;;;;;;;;;15.33;11.00;;;;;;;;116403;1201;24760;-63
2022/10/09 07:51:31;;;;;;;;;15.00;12.50;;;;;;;;116408;1202;25525;-64
2022/10/09 07:54:00;;;;;;;;;14.00;12.00;;;;;;;;116461;1206;25088;-65
2022/10/09 07:56:31;;;;;;;;;15.00;10.00;;;;;;;;116560;1202;25652;-64
2022/10/09 07:59:02;;;;;;;;;15.00;13.00;;;;;;;;116429;1203;25055;-64
2022/10/09 08:01:31;;;;;;;;;17.00;14.00;;;;;;;;116493;1200;25127;-63
2022/10/09 08:04:02;;;;;;;;;19.67;19.67;;;;;;;;116430;1202;25261;-64
2022/10/09 08:06:30;;;;;;;;;14.50;13.50;;;;;;;;116483;1203;25618;-68
2022/10/09 08:09:00;;;;;;;;;19.00;16.75;;;;;;;;116408;1206;25377;-70
2022/10/09 08:11:29;;;;;;;;;16.50;14.75;;;;;;;;116446;1202;25974;-66
2022/10/09 08:13:57;;;;;;;;;18.50;17.00;;;;;;;;116520;1210;25179;-68
2022/10/09 08:16:26;;;;;;;;;27.50;19.00;;;;;;;;116415;1205;24862;-66
2022/10/09 08:18:59;;;;;;;;;24.00;20.00;;;;;;;;116435;1206;25594;-68
2022/10/09 08:21:28;;;;;;;;;35.00;27.00;;;;;;;;116443;1203;25103;-65
2022/10/09 08:23:57;;;;;;;;;20.75;16.50;;;;;;;;116463;1201;25680;-64
2022/10/09 08:26:29;;;;;;;;;39.00;28.00;;;;;;;;116382;1206;25094;-58
2022/10/09 08:29:00;;;;;;;;;22.00;19.00;;;;;;;;116423;1209;25839;-58
2022/10/09 08:31:30;;;;;;;;;25.00;23.00;;;;;;;;116498;1201;25700;-56
2022/10/09 08:34:00;;;;;;;;;29.67;20.00;;;;;;;;116428;1198;25517;-58
2022/10/09 08:36:29;;;;;;;;;25.50;18.50;;;;;;;;116395;1203;24753;-63
2022/10/09 08:38:57;;;;;;;;;22.75;16.00;;;;;;;;116411;1203;25290;-61
2022/10/09 08:41:31;;;;;;;;;18.00;15.00;;;;;;;;116404;1211;25690;-67
2022/10/09 08:44:10;;;;;;;;;21.67;19.00;;;;;;;;116554;1202;25632;-66
2022/10/09 08:47:02;;;;;;;;;23.33;20.33;;;;;;;;116541;1206;25143;-60
2022/10/09 08:49:39;;;;;;;;;23.00;19.33;;;;;;;;116556;1207;25181;-62
2022/10/09 08:52:31;;;;;;;;;24.00;18.50;;;;;;;;116564;1203;24879;-60
2022/10/09 08:55:11;;;;;;;;;23.33;17.00;;;;;;;;116520;1210;25160;-61
2022/10/09 08:57:40;;;;;;;;;15.33;13.67;;;;;;;;116532;1192;25471;-75
2022/10/09 09:00:23;;;;;;;;;18.00;17.50;;;;;;;;116385;1203;25399;-60
2022/10/09 09:03:07;;;;;;;;;22.00;20.00;;;;;;;;116495;1206;25094;-62
2022/10/09 09:05:40;;;;;;;;;16.00;14.67;;;;;;;;116411;1211;25627;-59
2022/10/09 09:08:30;;;;;;;;;22.50;17.50;;;;;;;;116543;1206;24810;-57
2022/10/09 09:11:12;;;;;;;;;18.50;16.50;;;;;;;;116493;1198;24767;-60
2022/10/09 09:13:56;;;;;;;;;24.67;19.00;;;;;;;;116575;1203;25634;-59
2022/10/09 09:16:43;;;;;;;;;18.00;15.00;;;;;;;;116429;1200;24903;-62
2022/10/09 09:19:24;;;;;;;;;18.00;16.00;;;;;;;;116433;1211;25266;-66
2022/10/09 09:21:52;;;;;;;;;19.00;16.00;;;;;;;;116495;1204;25167;-63
2022/10/09 09:24:26;;;;;;;;;17.00;16.00;;;;;;;;116522;1203;24833;-63
2022/10/09 09:26:59;;;;;;;;;16.00;12.67;;;;;;;;116524;1210;25466;-63
2022/10/09 09:29:33;;;;;;;;;20.50;16.00;;;;;;;;116793;1204;25273;-68
2022/10/09 09:32:02;;;;;;;;;22.00;14.00;;;;;;;;116397;1203;25529;-64
2022/10/09 09:34:37;;;;;;;;;19.00;16.00;;;;;;;;116546;1201;25138;-59
2022/10/09 09:37:05;;;;;;;;;20.00;15.00;;;;;;;;116408;1198;25712;-66
2022/10/09 09:39:33;;;;;;;;;16.50;14.00;;;;;;;;116705;1204;25285;-58
2022/10/09 09:42:22;;;;;;;;;15.00;11.50;;;;;;;;116417;1207;24774;-60
2022/10/09 09:44:56;;;;;;;;;23.50;16.50;;;;;;;;116418;1203;24869;-58
2022/10/09 09:48:07;;;;;;;;;19.00;15.00;;;;;;;;116531;1211;25491;-58
2022/10/09 09:50:38;;;;;;;;;15.00;14.50;;;;;;;;116544;1209;24882;-59
2022/10/09 09:53:30;;;;;;;;;18.00;15.25;;;;;;;;116428;1199;25035;-58
2022/10/09 09:55:59;;;;;;;;;22.00;16.00;;;;;;;;116426;1196;24777;-57
2022/10/09 09:58:38;;;;;;;;;17.00;15.00;;;;;;;;116403;1210;25513;-60
2022/10/09 10:01:06;;;;;;;;;16.25;14.50;;;;;;;;116445;1203;25624;-57
2022/10/09 10:03:35;;;;;;;;;16.00;15.50;;;;;;;;116410;1203;25556;-57
2022/10/09 10:06:04;;;;;;;;;21.00;17.00;;;;;;;;116499;1201;25398;-57
2022/10/09 10:08:33;;;;;;;;;21.00;16.00;;;;;;;;116522;1204;25645;-58
2022/10/09 10:11:05;;;;;;;;;20.00;17.00;;;;;;;;116539;1210;24842;-59
2022/10/09 10:13:37;;;;;;;;;11.00;8.50;;;;;;;;116562;1202;25475;-61
2022/10/09 10:16:06;;;;;;;;;18.67;18.00;;;;;;;;116389;1196;25600;-60
2022/10/09 10:18:42;;;;;;;;;15.00;13.00;;;;;;;;116410;1208;25359;-59
2022/10/09 10:21:18;;;;;;;;;13.00;10.00;;;;;;;;116437;1211;25452;-60
2022/10/09 10:23:53;;;;;;;;;15.00;11.67;;;;;;;;116473;1206;25465;-59
2022/10/09 10:26:40;;;;;;;;;12.00;11.00;;;;;;;;116533;1202;25343;-60
2022/10/09 10:29:18;;;;;;;;;16.00;13.00;;;;;;;;116615;1206;25630;-59
2022/10/09 10:31:54;;;;;;;;;15.50;13.00;;;;;;;;116467;1200;26137;-59
2022/10/09 10:34:31;;;;;;;;;13.50;11.00;;;;;;;;116583;1202;24987;-59
2022/10/09 10:37:13;;;;;;;;;19.00;12.00;;;;;;;;116446;1209;25102;-59
2022/10/09 10:40:02;;;;;;;;;13.00;13.00;;;;;;;;116422;1203;25115;-59
2022/10/09 10:42:42;;;;;;;;;13.00;10.00;;;;;;;;116547;1200;25239;-60
2022/10/09 10:45:18;;;;;;;;;10.33;9.33;;;;;;;;116546;1200;25495;-60
2022/10/09 10:47:50;;;;;;;;;13.00;13.00;;;;;;;;116412;1200;25309;-61
2022/10/09 10:50:20;;;;;;;;;12.00;11.00;;;;;;;;116403;1198;25362;-60
2022/10/09 10:52:55;;;;;;;;;11.00;10.00;;;;;;;;116433;1210;25354;-59
2022/10/09 10:56:02;;;;;;;;;12.33;11.67;;;;;;;;116562;1205;25527;-59
2022/10/09 10:58:39;;;;;;;;;12.25;11.50;;;;;;;;116500;1203;25335;-59
2022/10/09 11:01:23;;;;;;;;;9.50;9.50;;;;;;;;116438;1198;24924;-60
2022/10/09 11:03:57;;;;;;;;;13.00;10.00;;;;;;;;116589;1204;25018;-60
2022/10/09 11:06:51;;;;;;;;;16.00;11.00;;;;;;;;116541;1203;25073;-59
2022/10/09 11:09:22;;;;;;;;;17.00;16.00;;;;;;;;116558;1207;24937;-59
2022/10/09 11:12:34;;;;;;;;;13.00;13.00;;;;;;;;116635;1206;25654;-59
2022/10/09 11:15:24;;;;;;;;;13.00;13.00;;;;;;;;116825;1201;25108;-60
2022/10/09 11:17:52;;;;;;;;;12.00;10.00;;;;;;;;116551;1196;25330;-59
2022/10/09 11:20:56;;;;;;;;;15.00;14.00;;;;;;;;116592;1209;25444;-58
2022/10/09 11:24:01;;;;;;;;;11.00;11.00;;;;;;;;116558;1192;25209;-58
2022/10/09 11:26:33;;;;;;;;;13.00;9.00;;;;;;;;116561;1199;25190;-58
2022/10/09 11:29:07;;;;;;;;;10.50;10.50;;;;;;;;116553;1206;24794;-58
2022/10/09 11:31:40;;;;;;;;;9.00;9.00;;;;;;;;116467;1206;25632;-58
2022/10/09 11:34:16;;;;;;;;;10.00;10.00;;;;;;;;116521;1203;25105;-59
2022/10/09 11:36:45;;;;;;;;;11.00;8.50;;;;;;;;116526;1196;25774;-59
2022/10/09 11:39:17;;;;;;;;;11.67;9.00;;;;;;;;116570;1203;24971;-61
2022/10/09 11:41:46;;;;;;;;;13.00;11.00;;;;;;;;116389;1196;25168;-60
2022/10/09 11:44:39;;;;;;;;;9.75;9.75;;;;;;;;116517;1200;25421;-60
2022/10/09 11:47:26;;;;;;;;;12.00;12.00;;;;;;;;116583;1206;25565;-60
2022/10/09 11:50:20;;;;;;;;;8.00;8.00;;;;;;;;116593;1198;24990;-60
2022/10/09 11:52:54;;;;;;;;;10.50;9.00;;;;;;;;116540;1206;25442;-60
2022/10/09 11:55:25;;;;;;;;;13.00;11.00;;;;;;;;116503;1205;25140;-60
2022/10/09 11:57:54;;;;;;;;;14.00;12.00;;;;;;;;116415;1208;24798;-60
2022/10/09 12:00:32;;;;;;;;;13.00;10.50;;;;;;;;116444;1203;25759;-61
2022/10/09 12:03:04;;;;;;;;;8.67;8.33;;;;;;;;116563;1193;25802;-64
2022/10/09 12:05:39;;;;;;;;;11.00;10.00;;;;;;;;116424;1203;24969;-59
2022/10/09 12:08:17;;;;;;;;;11.67;11.67;;;;;;;;116514;1203;24880;-59
2022/10/09 12:10:54;;;;;;;;;16.00;11.00;;;;;;;;116600;1194;26125;-60
2022/10/09 12:13:39;;;;;;;;;14.00;11.00;;;;;;;;116416;1203;24968;-59
2022/10/09 12:16:27;;;;;;;;;11.00;10.00;;;;;;;;116410;1202;24911;-60
2022/10/09 12:18:57;;;;;;;;;11.50;11.00;;;;;;;;116545;1202;25549;-60
2022/10/09 12:21:34;;;;;;;;;12.50;10.00;;;;;;;;116440;1206;25172;-60
2022/10/09 12:24:02;;;;;;;;;13.00;9.50;;;;;;;;116412;1201;24757;-60
2022/10/09 12:26:34;;;;;;;;;16.00;11.00;;;;;;;;116525;1211;25371;-61
2022/10/09 12:29:04;;;;;;;;;12.50;12.50;;;;;;;;116430;1204;24996;-60
2022/10/09 12:31:35;;;;;;;;;15.00;15.00;;;;;;;;116385;1197;25666;-60
2022/10/09 12:34:20;;;;;;;;;11.50;11.50;;;;;;;;116568;1207;24956;-60
2022/10/09 12:36:48;;;;;;;;;11.50;8.00;;;;;;;;116531;1204;25121;-60
2022/10/09 12:39:22;;;;;;;;;14.00;12.00;;;;;;;;116563;1197;25304;-61
2022/10/09 12:41:53;;;;;;;;;17.00;13.00;;;;;;;;116398;1209;25578;-61
2022/10/09 12:44:25;;;;;;;;;11.00;10.00;;;;;;;;116455;1207;26203;-61
2022/10/09 12:46:53;;;;;;;;;14.00;9.00;;;;;;;;116585;1196;25026;-61
2022/10/09 12:49:24;;;;;;;;;12.00;10.00;;;;;;;;116377;1204;25281;-62
2022/10/09 12:51:54;;;;;;;;;12.50;12.50;;;;;;;;116401;1200;25426;-61
2022/10/09 12:54:25;;;;;;;;;11.50;9.50;;;;;;;;116404;1203;25599;-64
2022/10/09 12:56:54;;;;;;;;;12.00;12.00;;;;;;;;116415;1206;25646;-59
2022/10/09 12:59:24;;;;;;;;;10.00;10.00;;;;;;;;116433;1202;25176;-60
2022/10/09 13:01:56;;;;;;;;;14.00;11.00;;;;;;;;116505;1199;25712;-61
2022/10/09 13:04:26;;;;;;;;;12.00;12.00;;;;;;;;116419;1203;25114;-60
2022/10/09 13:06:55;;;;;;;;;15.00;12.67;;;;;;;;116551;1200;25600;-61
2022/10/09 13:09:33;;;;;;;;;14.00;12.00;;;;;;;;116497;1204;24786;-61
2022/10/09 13:12:08;;;;;;;;;8.00;8.00;;;;;;;;116428;1209;25468;-61
2022/10/09 13:14:45;;;;;;;;;9.00;8.00;;;;;;;;116461;1197;24986;-60
2022/10/09 13:17:34;;;;;;;;;10.00;9.00;;;;;;;;116453;1209;25064;-62
2022/10/09 13:20:30;;;;;;;;;7.50;7.50;;;;;;;;116422;1203;25633;-65
2022/10/09 13:23:03;;;;;;;;;11.33;9.00;;;;;;;;116541;1201;25556;-62
2022/10/09 13:25:34;;;;;;;;;14.50;12.50;;;;;;;;116416;1211;25377;-62
2022/10/09 13:28:03;;;;;;;;;14.33;12.33;;;;;;;;116423;1201;25420;-60
2022/10/09 13:30:31;;;;;;;;;9.67;9.67;;;;;;;;116529;1201;25481;-59
2022/10/09 13:33:00;;;;;;;;;9.00;9.00;;;;;;;;116430;1200;24765;-59
2022/10/09 13:35:28;;;;;;;;;12.00;12.00;;;;;;;;116439;1196;25750;-59
2022/10/09 13:37:57;;;;;;;;;11.67;10.67;;;;;;;;116414;1202;25260;-59
2022/10/09 13:40:25;;;;;;;;;9.50;9.00;;;;;;;;116501;1205;24865;-59
2022/10/09 13:42:55;;;;;;;;;11.33;9.33;;;;;;;;116447;1198;24981;-59
2022/10/09 13:45:23;;;;;;;;;11.00;10.00;;;;;;;;116413;1208;24929;-57
2022/10/09 13:47:52;;;;;;;;;14.00;13.50;;;;;;;;116535;1203;25113;-59
2022/10/09 13:50:20;;;;;;;;;8.75;8.75;;;;;;;;116488;1211;25022;-58
2022/10/09 13:52:48;;;;;;;;;7.00;7.00;;;;;;;;116436;1207;24943;-58
2022/10/09 13:55:17;;;;;;;;;11.00;10.00;;;;;;;;116442;1210;25552;-60
2022/10/09 13:57:45;;;;;;;;;10.00;10.00;;;;;;;;116516;1206;24965;-59
2022/10/09 14:00:14;;;;;;;;;10.00;7.67;;;;;;;;116463;1209;25638;-59
2022/10/09 14:02:42;;;;;;;;;7.00;6.50;;;;;;;;116421;1196;25318;-58
2022/10/09 14:05:10;;;;;;;;;10.00;9.00;;;;;;;;116429;1197;25232;-60
2022/10/09 14:07:38;;;;;;;;;11.00;8.00;;;;;;;;116424;1203;24731;-59
2022/10/09 14:10:07;;;;;;;;;10.50;10.50;;;;;;;;116521;1208;25434;-58
2022/10/09 14:12:35;;;;;;;;;13.00;13.00;;;;;;;;116411;1210;25471;-59
2022/10/09 14:15:05;;;;;;;;;9.50;8.00;;;;;;;;116404;1211;25142;-62
2022/10/09 14:17:33;;;;;;;;;13.00;10.75;;;;;;;;116513;1211;26239;-61
2022/10/09 14:20:02;;;;;;;;;12.00;9.50;;;;;;;;116392;1203;25290;-61
2022/10/09 14:22:30;;;;;;;;;15.00;11.50;;;;;;;;116348;1203;24947;-60
2022/10/09 14:24:58;;;;;;;;;12.00;11.00;;;;;;;;116396;1205;25211;-62
2022/10/09 14:27:27;;;;;;;;;9.00;7.00;;;;;;;;116444;1207;25634;-59
2022/10/09 14:29:55;;;;;;;;;13.50;10.50;;;;;;;;116488;1206;25577;-59
2022/10/09 14:32:24;;;;;;;;;16.00;11.50;;;;;;;;116439;1202;25979;-61
2022/10/09 14:34:52;;;;;;;;;15.00;12.67;;;;;;;;116407;1209;25202;-63
2022/10/09 14:37:20;;;;;;;;;13.00;11.33;;;;;;;;116365;1209;25582;-62